Getzville 2E NY

43° 01' 25"N, 78° 44' 55"W, Elevation 589 ft.
Eastern Time

Hourly observations for the last 72 hours

Date Time Temperature (°F) Humi-
dity

(%)
Wind
(mph)
Pressure Rain (in) Sun
(W/m2)
ET
(in)
Air Dew 6 Hour 1 Hr 3 Hr 6 Hr Day
Alt
(in)
Sea
Level

(mb)
Max Min
11 17:00 81.8 71.1 70 WSW 5 G 13 29.86 1011.1 0.00 118 0.108
11 16:00 82.8 71.6 69 WSW 3 G 14 29.85 1010.9 0.00 889 0.089
11 15:00 81.4 72.3 74 SW 5 G 12 29.84 1010.6 0.00 1123 0.071
11 14:00 79.5 70.9 80.6 75.5 75 W 8 G 20 29.84 1010.5 0.00 454 0.057
11 13:00 79.6 69.8 72 SW 3 G 11 29.83 1010.4 0.00 638 0.042
11 12:00 79.4 70.0 73 WSW 5 G 13 29.83 1010.3 0.00 387 0.029
11 11:00 79.7 71.1 75 WSW 6 G 14 29.82 1009.9 0.00 399 0.017
11 10:00 78.9 70.7 76 WSW 3 G 14 29.81 1009.5 0.00 306 0.009
11 09:00 78.7 70.1 75 SW 2 G 9 29.81 1009.4 0.00 113 0.005
11 08:00 75.5 68.5 75.5 67.9 79 SSW 1 G 6 29.80 1009.1 0.00 265 0.000
11 07:00 68.3 65.6 91 Calm 29.81 1009.4 0.00 33 0.000
11 06:00 68.4 65.7 91 Calm 29.81 1009.5 0.00 0 0.000
11 05:00 69.3 66.9 92 Calm 29.80 1009.0 0.00 0 0.000
11 04:00 69.8 67.4 92 Calm 29.80 1009.3 0.00 0 0.000
11 03:00 70.3 67.5 91 Calm 29.81 1009.6 0.00 0 0.000
11 02:00 70.8 67.7 82.1 70.6 90 Calm 29.82 1009.8 0.00 0 0.000
11 01:00 70.6 67.2 89 Calm 29.83 1010.3 0.00 0 0.000
11 00:00 71.3 67.6 88 Calm 29.85 1011.0 0.00 0 0.190
10 23:00 72.4 67.6 85 Calm 29.87 1011.6 0.00 0 0.189
10 22:00 74.4 68.2 81 Calm 29.88 1011.9 0.00 0 0.188
10 21:00 77.2 68.7 75 Calm 29.87 1011.5 0.00 0 0.188
10 20:00 82.1 70.1 91.0 82.1 67 SW 0 G 2 29.87 1011.6 0.00 18 0.186
10 19:00 84.2 70.7 64 S 1 G 4 29.85 1011.0 0.00 192 0.182
10 18:00 85.6 70.1 60 W 3 G 10 29.88 1011.8 0.00 63 0.177
10 17:00 86.6 69.6 57 W 5 G 12 29.91 1012.8 0.00 98 0.166
10 16:00 90.2 72.4 56 SW 2 G 13 29.93 1013.5 0.00 826 0.141
10 15:00 89.5 72.8 58 S 3 G 10 29.94 1014.1 0.00 974 0.113
10 14:00 88.4 74.7 88.6 75.3 64 S 2 G 9 29.96 1014.6 0.00 1011 0.086
10 13:00 87.6 73.5 63 WNW 5 G 12 29.97 1015.1 0.00 1071 0.057
10 12:00 87.5 75.2 67 W 2 G 10 29.98 1015.2 0.00 1020 0.031
10 11:00 84.1 73.3 70 WNW 6 G 11 29.98 1015.2 0.00 858 0.012
10 10:00 80.2 71.6 75 WNW 4 G 10 29.98 1015.3 0.00 211 0.008
10 09:00 77.8 70.4 78 SSW 1 G 5 29.97 1014.8 0.00 91 0.005
10 08:00 75.3 70.1 75.3 67.8 84 SE 0 G 4 29.98 1015.2 0.00 250 0.001
10 07:00 68.8 66.4 92 Calm 29.98 1015.2 0.00 39 0.000
10 06:00 67.8 65.1 91 Calm 29.99 1015.4 0.00 0 0.000
10 05:00 68.7 65.7 90 Calm 29.99 1015.6 0.00 0 0.000
10 04:00 69.7 66.6 90 Calm 29.99 1015.7 0.00 0 0.000
10 03:00 69.2 66.1 90 Calm 30.00 1015.9 0.00 0 0.000
10 02:00 70.4 67.0 78.7 70.4 89 Calm 30.00 1015.8 0.00 0 0.000
10 01:00 72.0 68.3 88 Calm 29.99 1015.6 0.00 0 0.000
10 00:00 73.2 68.8 86 Calm 29.99 1015.7 0.00 0 0.168
9 23:00 74.8 69.6 84 S 0 G 1 30.00 1016.1 0.00 0 0.167
9 22:00 75.0 67.7 78 WSW 0 G 1 30.01 1016.3 0.00 0 0.166
9 21:00 76.9 68.0 74 SW 1 G 6 30.00 1015.8 0.00 0 0.165
9 20:00 78.7 69.3 84.4 78.7 73 W 3 G 10 29.99 1015.5 0.00 23 0.163
9 19:00 80.0 70.6 73 WSW 3 G 12 29.98 1015.4 0.00 105 0.159
9 18:00 80.9 70.6 71 W 4 G 8 30.00 1015.8 0.00 176 0.153
9 17:00 81.2 69.6 68 W 6 G 12 30.00 1016.0 0.00 105 0.146
9 16:00 82.9 70.8 67 W 6 G 15 30.00 1016.0 0.00 846 0.127
9 15:00 84.3 72.6 68 SW 2 G 12 30.01 1016.2 0.00 911 0.100
9 14:00 83.6 70.6 83.7 67.4 65 W 8 G 14 30.03 1017.0 0.00 1027 0.072
9 13:00 82.2 68.8 64 WSW 4 G 14 30.04 1017.3 0.00 499 0.049
9 12:00 79.9 68.0 67 W 4 G 13 30.04 1017.4 0.00 696 0.030
9 11:00 76.3 66.6 72 SW 3 G 7 30.06 1017.8 0.00 777 0.016
9 10:00 74.0 65.2 74 SW 2 G 9 30.06 1017.9 0.00 411 0.010
9 09:00 71.2 62.9 75 SW 2 G 5 30.08 1018.5 0.00 232 0.006
9 08:00 67.4 59.6 67.4 59.0 76 SSW 1 G 2 30.08 1018.6 0.00 278 0.001
9 07:00 60.6 57.0 88 SW 0 G 1 30.07 1018.3 0.00 56 0.000
9 06:00 59.0 56.1 90 Calm 30.07 1018.4 0.00 0 0.000
9 05:00 59.3 56.7 91 Calm 30.07 1018.4 0.00 0 0.000
9 04:00 60.2 57.9 92 Calm 30.08 1018.5 0.00 0 0.000
9 03:00 60.5 57.9 91 Calm 30.08 1018.8 0.00 0 0.000
9 02:00 61.2 58.2 75.6 61.2 90 Calm 30.09 1019.1 0.00 0 0.000
9 01:00 61.9 58.6 89 Calm 30.10 1019.3 0.00 0 0.000
9 00:00 63.1 59.5 88 Calm 30.09 1019.1 0.00 0 0.135
8 23:00 64.7 59.4 83 Calm 30.08 1018.6 0.00 0 0.134
8 22:00 67.4 59.6 76 Calm 30.08 1018.8 0.00 0 0.133
8 21:00 71.2 59.7 67 SW 0 G 2 30.09 1019.0 0.00 0 0.132
8 20:00 75.6 61.2 83.4 75.6 61 W 1 G 8 30.09 1019.0 0.00 18 0.129
8 19:00 78.8 62.8 58 WSW 1 G 5 30.08 1018.7 0.00 216 0.124
8 18:00 81.0 61.7 52 WNW 3 G 11 30.08 1018.8 0.00 174 0.118

Data generated by WxSolution Version 1.9.1.5, Build 2018.05.20.